Time;durP1;ratioP1;P1;durP2;ratioP2;P2;SDS_P1;SDS_P2;PMS_P1;PMS_P2;Temp;Humidity;BMP_temperature;BMP_pressure;BME280_temperature;BME280_humidity;BME280_pressure;Samples;Min_cycle;Max_cycle;Signal;HPM_P1;HPM_P2
2023/05/15 00:04:01;;;;;;;17.40;15.20;;;;;;;12.41;82.77;98130.61;225356;1283;22603;-76
2023/05/15 00:09:03;;;;;;;15.90;12.90;;;;;;;12.39;82.70;98130.34;225299;1283;24185;-75
2023/05/15 00:14:08;;;;;;;12.70;11.40;;;;;;;12.36;82.78;98122.84;225456;1283;22533;-76
2023/05/15 00:19:30;;;;;;;12.00;10.70;;;;;;;12.32;82.62;98110.69;225414;1273;22640;-78
2023/05/15 00:24:34;;;;;;;10.90;9.20;;;;;;;12.29;82.82;98102.34;225462;1276;22566;-77
2023/05/15 00:29:41;;;;;;;11.60;9.50;;;;;;;12.24;82.83;98087.86;225392;1282;24197;-76
2023/05/15 00:34:44;;;;;;;9.70;7.80;;;;;;;12.20;82.78;98069.55;225386;1282;24365;-76
2023/05/15 00:39:46;;;;;;;7.90;6.90;;;;;;;12.16;82.96;98060.95;225333;1281;22556;-78
2023/05/15 00:44:52;;;;;;;8.50;7.70;;;;;;;12.12;82.84;98044.52;225284;1283;24276;-78
2023/05/15 00:49:54;;;;;;;7.30;6.60;;;;;;;12.07;83.06;98055.88;225440;1283;22544;-76
2023/05/15 00:54:56;;;;;;;7.90;7.10;;;;;;;12.04;83.10;98060.54;225353;1282;22544;-76
2023/05/15 01:00:06;;;;;;;7.20;6.50;;;;;;;12.00;83.17;98051.55;225438;1280;22555;-78
2023/05/15 01:05:09;;;;;;;8.70;7.80;;;;;;;11.97;83.36;98044.40;225429;1276;22514;-76
2023/05/15 01:10:14;;;;;;;7.20;6.30;;;;;;;11.94;83.41;98024.33;225457;1280;22574;-78
2023/05/15 01:15:16;;;;;;;6.80;6.10;;;;;;;11.90;83.47;98017.38;225479;1276;24256;-78
2023/05/15 01:20:21;;;;;;;5.90;5.40;;;;;;;11.87;83.41;98022.27;225433;1276;22563;-78
2023/05/15 01:25:44;;;;;;;6.70;6.00;;;;;;;11.87;83.93;98025.36;225334;1282;22531;-78
2023/05/15 01:30:51;;;;;;;6.10;5.50;;;;;;;11.86;83.75;98015.77;225395;1277;22547;-77
2023/05/15 01:36:15;;;;;;;6.00;5.30;;;;;;;11.85;83.90;98016.79;225372;1283;23859;-77
2023/05/15 01:41:21;;;;;;;7.40;5.10;;;;;;;11.84;83.97;98019.16;225413;1279;24286;-77
2023/05/15 01:46:34;;;;;;;10.40;6.70;;;;;;;11.84;83.93;98016.39;225410;1280;22551;-77
2023/05/15 01:51:39;;;;;;;6.90;6.20;;;;;;;11.84;84.04;98009.19;225295;1282;22543;-77
2023/05/15 01:56:45;;;;;;;7.30;6.60;;;;;;;11.84;84.03;98010.56;225437;1280;22575;-78
2023/05/15 02:01:50;;;;;;;6.80;6.20;;;;;;;11.84;84.18;98016.55;225385;1279;23578;-77
2023/05/15 02:06:55;;;;;;;8.00;7.10;;;;;;;11.84;83.99;98018.70;225334;1283;22587;-78
2023/05/15 02:12:00;;;;;;;9.20;8.30;;;;;;;11.84;84.09;98014.96;225424;1277;22543;-76
2023/05/15 02:17:12;;;;;;;9.30;7.40;;;;;;;11.86;84.17;98018.98;225377;1281;22584;-76
2023/05/15 02:22:29;;;;;;;9.20;8.40;;;;;;;11.87;84.18;98016.96;225397;1283;24808;-75
2023/05/15 02:28:00;;;;;;;9.10;8.30;;;;;;;11.88;84.16;97997.65;225422;1283;22586;-77
2023/05/15 02:33:21;;;;;;;9.50;8.30;;;;;;;11.89;84.27;97983.80;225435;1280;24881;-77
2023/05/15 02:38:32;;;;;;;10.60;9.60;;;;;;;11.90;84.18;97983.91;225444;1280;22555;-77
2023/05/15 02:43:57;;;;;;;10.20;9.20;;;;;;;11.92;84.39;97982.55;225393;1281;22539;-77
2023/05/15 02:49:09;;;;;;;9.90;9.00;;;;;;;11.95;84.34;97979.04;225421;1275;22554;-76
2023/05/15 02:54:19;;;;;;;;;;;;;;;11.96;84.50;97972.72;225426;1283;22529;-77
2023/05/15 02:59:44;;;;;;;;;;;;;;;;;;;;;
2023/05/15 03:04:55;;;;;;;11.40;9.90;;;;;;;12.00;84.47;97961.48;225421;1275;22551;-77
2023/05/15 03:09:58;;;;;;;13.50;12.10;;;;;;;12.00;84.50;97960.59;225394;1279;22603;-76
2023/05/15 03:15:20;;;;;;;16.30;11.30;;;;;;;12.03;84.66;97958.89;225412;1280;22550;-76
2023/05/15 03:20:25;;;;;;;15.80;12.70;;;;;;;12.04;84.67;97949.45;225369;1283;22543;-76
2023/05/15 03:25:33;;;;;;;13.60;12.30;;;;;;;12.07;84.64;97947.52;225397;1283;22578;-77
2023/05/15 03:30:35;;;;;;;16.30;14.60;;;;;;;12.08;84.64;97950.81;225377;1283;22521;-77
2023/05/15 03:35:40;;;;;;;16.60;15.00;;;;;;;12.09;84.61;97939.20;225219;1283;22573;-76
2023/05/15 03:40:43;;;;;;;20.00;17.90;;;;;;;12.10;84.53;97931.66;225259;1283;22568;-78
2023/05/15 03:45:45;;;;;;;24.10;21.70;;;;;;;12.11;84.65;97923.42;225310;1281;22554;-78
2023/05/15 03:50:51;;;;;;;23.40;21.00;;;;;;;12.11;84.62;97920.56;225318;1277;22546;-77
2023/05/15 03:56:23;;;;;;;29.10;25.50;;;;;;;12.11;84.71;97915.84;225371;1283;23025;-77
2023/05/15 04:01:34;;;;;;;30.10;26.90;;;;;;;12.12;84.77;97915.88;225354;1283;22535;-77
2023/05/15 04:06:55;;;;;;;30.10;27.00;;;;;;;12.15;84.90;97916.87;225372;1283;22555;-77
2023/05/15 04:11:57;;;;;;;28.40;25.40;;;;;;;12.17;84.92;97919.84;225388;1281;22551;-75
2023/05/15 04:17:00;;;;;;;29.90;25.80;;;;;;;12.17;84.80;97921.42;225354;1279;24297;-77
2023/05/15 04:22:06;;;;;;;26.10;23.40;;;;;;;12.20;84.91;97923.11;225382;1281;22655;-77
2023/05/15 04:27:08;;;;;;;27.70;24.70;;;;;;;12.24;85.04;97924.17;225356;1283;23766;-76
2023/05/15 04:32:18;;;;;;;26.10;23.30;;;;;;;12.29;85.19;97916.88;225417;1283;22549;-77
2023/05/15 04:37:23;;;;;;;26.90;23.70;;;;;;;12.37;85.14;97911.41;225427;1283;22589;-78
2023/05/15 04:42:26;;;;;;;25.70;23.00;;;;;;;12.42;85.18;97900.44;225377;1276;22543;-77
2023/05/15 04:47:29;;;;;;;23.50;21.10;;;;;;;12.48;85.16;97898.33;225405;1279;23764;-76
2023/05/15 04:52:32;;;;;;;22.60;20.30;;;;;;;12.54;84.96;97890.35;225288;1283;22554;-78
2023/05/15 04:57:34;;;;;;;22.10;19.40;;;;;;;12.60;85.12;97888.98;225412;1279;22569;-76
2023/05/15 05:02:38;;;;;;;23.20;20.80;;;;;;;12.64;84.95;97884.48;225341;1278;25419;-79
2023/05/15 05:07:43;;;;;;;19.10;16.80;;;;;;;12.67;84.97;97883.33;225337;1277;22568;-79
2023/05/15 05:12:45;;;;;;;23.70;20.10;;;;;;;12.71;85.02;97880.80;225383;1281;22551;-77
2023/05/15 05:18:05;;;;;;;20.10;18.00;;;;;;;12.78;85.08;97875.90;225450;1283;22540;-77
2023/05/15 05:23:28;;;;;;;24.60;21.60;;;;;;;12.87;85.07;97867.02;225449;1283;25448;-77
2023/05/15 05:28:32;;;;;;;22.00;19.80;;;;;;;12.97;84.97;97867.23;225444;1280;22583;-78
2023/05/15 05:33:35;;;;;;;25.20;22.70;;;;;;;13.08;84.95;97863.08;225504;1280;24275;-79
2023/05/15 05:38:39;;;;;;;24.40;21.70;;;;;;;13.22;84.94;97865.64;225419;1283;23302;-78
2023/05/15 05:43:41;;;;;;;22.10;19.90;;;;;;;13.34;85.05;97867.73;225179;1268;25280;-76
2023/05/15 05:48:46;;;;;;;21.30;19.10;;;;;;;13.45;84.76;97865.13;225208;1281;25253;-77
2023/05/15 05:54:17;;;;;;;19.70;17.70;;;;;;;13.53;84.54;97860.85;225212;1275;22776;-78
2023/05/15 05:59:43;;;;;;;19.30;16.40;;;;;;;13.59;84.24;97859.38;225347;1278;23381;-76
2023/05/15 06:04:55;;;;;;;16.50;14.90;;;;;;;13.64;84.20;97853.05;224915;1264;22718;-76
2023/05/15 06:10:00;;;;;;;16.50;14.80;;;;;;;13.66;83.86;97852.14;224893;1259;22557;-77
2023/05/15 06:15:17;;;;;;;17.10;15.20;;;;;;;13.66;83.98;97858.40;225052;1261;24826;-76
2023/05/15 06:20:41;;;;;;;13.70;11.80;;;;;;;13.75;84.06;97848.27;224856;1267;22615;-77
2023/05/15 06:25:49;;;;;;;12.00;10.90;;;;;;;13.88;84.00;97847.48;224578;1261;138513;-78
2023/05/15 06:31:03;;;;;;;11.10;10.20;;;;;;;14.05;84.20;97852.48;224690;1261;138624;-79
2023/05/15 06:36:36;;;;;;;7.30;6.60;;;;;;;14.17;83.87;97848.70;224642;1269;138608;-76
2023/05/15 06:41:57;;;;;;;;;;;;;;;;;;;;;
2023/05/15 06:47:00;;;;;;;9.10;8.20;;;;;;;14.28;83.25;97847.70;224977;1273;22582;-77
2023/05/15 06:52:05;;;;;;;10.70;9.60;;;;;;;14.28;83.51;97847.98;224849;1268;137852;-76
2023/05/15 06:57:08;;;;;;;12.00;9.70;;;;;;;14.30;83.57;97852.90;224742;1278;138361;-79
2023/05/15 07:02:43;;;;;;;8.10;7.30;;;;;;;14.26;83.14;97846.91;225010;1265;138999;-78
2023/05/15 07:07:58;;;;;;;6.10;5.50;;;;;;;14.19;82.82;97849.71;224970;1283;138494;-78
2023/05/15 07:13:02;;;;;;;4.50;4.10;;;;;;;14.16;83.04;97850.11;224744;1277;138396;-76
2023/05/15 07:18:17;;;;;;;5.50;4.90;;;;;;;14.16;83.27;97852.67;224641;1277;138295;-76
2023/05/15 07:23:33;;;;;;;5.60;5.00;;;;;;;14.18;83.31;97848.64;224765;1282;138293;-77
2023/05/15 07:28:39;;;;;;;6.50;5.90;;;;;;;14.22;83.51;97841.91;224919;1262;24191;-77
2023/05/15 07:34:02;;;;;;;5.20;4.80;;;;;;;14.33;83.44;97833.38;224925;1261;138123;-77
2023/05/15 07:39:07;;;;;;;5.50;5.10;;;;;;;14.42;83.33;97839.95;225020;1275;138150;-80
2023/05/15 07:44:10;;;;;;;5.60;5.10;;;;;;;14.49;83.25;97835.83;225077;1282;138418;-78
2023/05/15 07:49:13;;;;;;;6.10;5.10;;;;;;;14.56;83.28;97833.84;224962;1281;138358;-78
2023/05/15 07:54:20;;;;;;;6.00;5.50;;;;;;;14.62;83.27;97836.30;225252;1280;138542;-75
2023/05/15 07:59:27;;;;;;;6.60;5.90;;;;;;;14.66;83.13;97837.56;224929;1282;138223;-76
2023/05/15 08:04:34;;;;;;;5.90;5.30;;;;;;;14.73;83.08;97844.17;225036;1282;22558;-75
2023/05/15 08:09:49;;;;;;;5.10;4.70;;;;;;;14.82;83.09;97843.71;224926;1280;138106;-76
2023/05/15 08:14:55;;;;;;;5.00;4.60;;;;;;;14.88;82.80;97846.52;224969;1280;138332;-76
2023/05/15 08:19:58;;;;;;;6.30;5.80;;;;;;;14.91;82.57;97853.13;225026;1280;138490;-77
2023/05/15 08:25:16;;;;;;;6.30;5.70;;;;;;;14.93;82.73;97853.95;224986;1271;138285;-79
2023/05/15 08:30:39;;;;;;;6.30;5.80;;;;;;;14.88;82.20;97857.48;225104;1275;138408;-79
2023/05/15 08:36:23;;;;;;;6.80;6.20;;;;;;;14.74;82.43;97856.97;225029;1267;138399;-80
2023/05/15 08:41:58;;;;;;;;;;;;;;;;;;;;;
2023/05/15 08:47:12;;;;;;;6.90;6.20;;;;;;;14.62;82.12;97858.79;225091;1277;22539;-80
2023/05/15 08:52:44;;;;;;;7.30;6.70;;;;;;;14.53;82.58;97859.06;225373;1281;22645;-80
2023/05/15 08:58:10;;;;;;;7.90;7.20;;;;;;;14.62;83.03;97857.48;225060;1280;137909;-77
2023/05/15 09:03:30;;;;;;;10.50;9.40;;;;;;;14.75;83.12;97856.11;225030;1283;137719;-78
2023/05/15 09:09:04;;;;;;;9.00;8.20;;;;;;;15.00;83.80;97858.54;224780;1284;138560;-79
2023/05/15 09:14:24;;;;;;;9.40;8.50;;;;;;;15.21;83.04;97857.16;224750;1268;138434;-80
2023/05/15 09:19:27;;;;;;;9.70;8.40;;;;;;;15.18;82.05;97865.62;224934;1264;138262;-77
2023/05/15 09:24:39;;;;;;;7.60;6.90;;;;;;;15.10;81.80;97867.52;224894;1263;137859;-80
2023/05/15 09:30:09;;;;;;;8.60;7.80;;;;;;;14.93;81.52;97868.15;224708;1276;138459;-78
2023/05/15 09:35:40;;;;;;;9.70;8.70;;;;;;;14.82;82.01;97863.70;224788;1267;22578;-80
2023/05/15 09:41:01;;;;;;;8.60;7.80;;;;;;;14.73;82.08;97870.86;224935;1285;24222;-76
2023/05/15 09:46:36;;;;;;;8.00;7.30;;;;;;;14.60;82.01;97870.88;224674;1262;138028;-81
2023/05/15 09:52:02;;;;;;;11.50;7.60;;;;;;;14.54;82.52;97878.84;224746;1283;138373;-74
2023/05/15 09:57:30;;;;;;;7.50;6.80;;;;;;;14.79;82.95;97870.56;224890;1269;138506;-73
2023/05/15 10:02:41;;;;;;;7.90;7.10;;;;;;;15.13;82.68;97878.42;224835;1275;139389;-76
2023/05/15 10:08:00;;;;;;;8.20;7.40;;;;;;;15.26;82.35;97870.55;224712;1276;138259;-75
2023/05/15 10:13:03;;;;;;;7.20;6.60;;;;;;;15.68;82.40;97867.15;224936;1268;137926;-73
2023/05/15 10:18:07;;;;;;;6.90;6.20;;;;;;;16.21;82.47;97874.86;224904;1279;138451;-72
2023/05/15 10:23:19;;;;;;;5.00;4.50;;;;;;;16.74;81.88;97870.38;225069;1275;22540;-75
2023/05/15 10:28:23;;;;;;;5.10;4.30;;;;;;;16.54;79.76;97880.54;224958;1277;137223;-77
2023/05/15 10:33:29;;;;;;;5.10;4.50;;;;;;;16.25;79.49;97888.41;224931;1270;138220;-77
2023/05/15 10:38:38;;;;;;;4.80;4.40;;;;;;;16.11;79.69;97882.61;224646;1271;304152;-77
2023/05/15 10:43:41;;;;;;;5.00;4.50;;;;;;;16.50;80.51;97877.70;224944;1268;138478;-77
2023/05/15 10:48:53;;;;;;;5.00;4.60;;;;;;;17.07;80.32;97872.48;224873;1278;138413;-78
2023/05/15 10:54:21;;;;;;;4.10;3.60;;;;;;;17.27;78.64;97870.02;224860;1282;139217;-78
2023/05/15 10:59:33;;;;;;;3.80;3.50;;;;;;;17.28;78.39;97864.90;225203;1274;22558;-76
2023/05/15 11:04:36;;;;;;;3.40;3.10;;;;;;;17.40;77.86;97860.52;225157;1280;24236;-75
2023/05/15 11:09:39;;;;;;;14.80;11.40;;;;;;;17.48;77.31;97860.48;224929;1268;138203;-73
2023/05/15 11:15:11;;;;;;;4.10;3.70;;;;;;;17.56;77.72;97854.29;225004;1283;138642;-78
2023/05/15 11:20:34;;;;;;;6.70;3.90;;;;;;;18.17;79.26;97849.47;224843;1271;138466;-76
2023/05/15 11:26:04;;;;;;;3.00;1.80;;;;;;;18.91;77.29;97843.53;224778;1264;138352;-77
2023/05/15 11:31:14;;;;;;;1.60;1.50;;;;;;;18.75;74.19;97839.69;224920;1280;138486;-74
2023/05/15 11:36:48;;;;;;;1.70;1.60;;;;;;;18.48;73.70;97829.66;224989;1261;137691;-75
2023/05/15 11:42:33;;;;;;;2.20;2.00;;;;;;;18.56;74.21;97816.39;225099;1273;138255;-76
2023/05/15 11:48:28;;;;;;;2.50;2.30;;;;;;;18.58;73.87;97808.95;224613;1276;138908;-74
2023/05/15 11:53:34;;;;;;;2.40;2.20;;;;;;;18.68;73.59;97811.05;225065;1265;22560;-75
2023/05/15 11:58:42;;;;;;;2.20;2.00;;;;;;;18.77;73.02;97810.15;225215;1281;22523;-76
2023/05/15 12:04:10;;;;;;;2.30;2.10;;;;;;;18.82;72.09;97813.11;225102;1278;137926;-75
2023/05/15 12:09:51;;;;;;;2.00;1.90;;;;;;;19.14;71.81;97807.91;224689;1284;138428;-72
2023/05/15 12:15:47;;;;;;;3.30;2.80;;;;;;;19.28;70.47;97808.93;224738;1283;138322;-71
2023/05/15 12:21:17;;;;;;;2.20;2.10;;;;;;;19.17;70.16;97805.82;224908;1281;138221;-71
2023/05/15 12:27:10;;;;;;;;;;;;;;;;;;;;;
2023/05/15 12:33:12;;;;;;;1.70;1.60;;;;;;;18.52;70.01;97813.59;225100;1281;138294;-73
2023/05/15 12:38:34;;;;;;;2.50;1.40;;;;;;;18.47;69.73;97809.77;225128;1282;138302;-72
2023/05/15 12:45:04;;;;;;;2.70;1.60;;;;;;;18.66;69.78;97806.36;225042;1282;138441;-73
2023/05/15 12:50:22;;;;;;;;;;;;;;;18.81;68.44;97811.92;225098;1275;138382;-73
2023/05/15 12:55:47;;;;;;;0.90;0.90;;;;;;;18.83;68.12;97820.35;225008;1278;124884;-73
2023/05/15 13:01:47;;;;;;;1.40;0.80;;;;;;;18.82;67.26;97822.52;224853;1281;138521;-72
2023/05/15 13:07:43;;;;;;;;;;;;;;;;;;;;;
2023/05/15 13:13:01;;;;;;;1.30;0.70;;;;;;;18.83;67.10;97814.45;225071;1277;138246;-72
2023/05/15 13:18:31;;;;;;;;;;;;;;;;;;;;;
2023/05/15 13:23:36;;;;;;;0.70;0.60;;;;;;;19.01;65.43;97827.65;224925;1264;138276;-72
2023/05/15 13:28:42;;;;;;;0.70;0.70;;;;;;;19.02;65.66;97826.69;225084;1281;22566;-74
2023/05/15 13:39:05;;;;;;;1.60;0.90;;;;;;;19.07;64.62;97824.66;225011;1278;139061;-73
2023/05/15 13:44:39;;;;;;;2.60;0.80;;;;;;;19.09;64.15;97828.52;224863;1280;137886;-74
2023/05/15 13:49:47;;;;;;;0.60;0.60;;;;;;;18.94;63.41;97826.40;224972;1277;137585;-73
2023/05/15 13:55:00;;;;;;;0.50;0.50;;;;;;;18.70;63.15;97827.04;224930;1271;137596;-74
2023/05/15 14:00:30;;;;;;;0.90;0.70;;;;;;;18.53;62.92;97835.04;224853;1281;26061;-73
2023/05/15 14:06:10;;;;;;;0.70;0.70;;;;;;;18.81;63.65;97834.89;224769;1276;22551;-73
2023/05/15 14:11:36;;;;;;;0.60;0.60;;;;;;;19.01;62.51;97838.08;224350;1283;23011;-73
2023/05/15 14:16:43;;;;;;;0.80;0.80;;;;;;;18.83;62.13;97836.12;224362;1286;24256;-72
2023/05/15 14:21:49;;;;;;;1.10;0.70;;;;;;;18.55;63.07;97841.91;224790;1284;25383;-72
2023/05/15 14:26:52;;;;;;;1.70;0.70;;;;;;;18.35;63.21;97851.70;225002;1284;22583;-72
2023/05/15 14:31:54;;;;;;;0.90;0.90;;;;;;;18.12;63.58;97859.77;225114;1274;22536;-72
2023/05/15 14:37:03;;;;;;;0.80;0.70;;;;;;;17.76;64.02;97866.01;225140;1284;25229;-74
2023/05/15 14:42:05;;;;;;;1.10;0.70;;;;;;;17.32;65.85;97879.46;225412;1282;22547;-74
2023/05/15 14:47:26;;;;;;;0.60;0.50;;;;;;;16.78;67.46;97876.39;225614;1275;22598;-73
2023/05/15 14:52:51;;;;;;;2.20;0.70;;;;;;;16.38;68.58;97873.96;225559;1282;22635;-73
2023/05/15 14:58:01;;;;;;;1.00;0.80;;;;;;;16.44;69.74;97870.27;225513;1281;22539;-73
2023/05/15 15:03:23;;;;;;;1.40;0.70;;;;;;;16.64;70.25;97872.48;225516;1282;22565;-74
2023/05/15 15:08:42;;;;;;;1.80;0.80;;;;;;;16.74;70.07;97871.19;225599;1282;22543;-74
2023/05/15 15:13:57;;;;;;;0.80;0.80;;;;;;;16.79;70.23;97865.89;225584;1282;22558;-73
2023/05/15 15:19:05;;;;;;;1.40;0.80;;;;;;;16.76;70.17;97866.40;225613;1282;25275;-73
2023/05/15 15:25:23;;;;;;;2.90;0.90;;;;;;;16.86;70.31;97868.44;225185;1285;22569;-73
2023/05/15 15:30:52;;;;;;;0.90;0.80;;;;;;;16.82;70.17;97878.64;225204;1278;22554;-73
2023/05/15 15:36:28;;;;;;;0.90;0.90;;;;;;;16.59;69.84;97867.52;225122;1285;22583;-74
2023/05/15 15:41:31;;;;;;;1.40;0.60;;;;;;;16.39;69.54;97867.48;225205;1284;22535;-74
2023/05/15 15:47:04;;;;;;;0.80;0.40;;;;;;;16.18;69.34;97869.92;225273;1282;22543;-74
2023/05/15 15:52:59;;;;;;;0.40;0.40;;;;;;;15.97;69.25;97882.09;225543;1282;22552;-73
2023/05/15 15:58:47;;;;;;;0.50;0.40;;;;;;;15.93;69.52;97888.33;225481;1265;22543;-72
2023/05/15 16:04:03;;;;;;;1.90;0.40;;;;;;;15.95;69.78;97880.78;225557;1279;22541;-73
2023/05/15 16:09:17;;;;;;;1.80;0.40;;;;;;;16.01;69.92;97876.94;225553;1273;22540;-73
2023/05/15 16:14:53;;;;;;;;;;;;;;;;;;;;;
2023/05/15 16:20:08;;;;;;;0.90;0.80;;;;;;;16.40;70.33;97881.04;225460;1281;22539;-73
2023/05/15 16:25:39;;;;;;;1.00;0.70;;;;;;;16.44;70.00;97874.27;225573;1278;22552;-73
2023/05/15 16:30:50;;;;;;;1.10;1.10;;;;;;;16.37;69.95;97885.79;225574;1279;22608;-73
2023/05/15 16:36:04;;;;;;;4.70;2.10;;;;;;;16.29;69.60;97885.16;225516;1282;22569;-74
2023/05/15 16:41:25;;;;;;;1.50;1.30;;;;;;;16.18;69.74;97895.55;225578;1281;22543;-73
2023/05/15 16:46:30;;;;;;;1.80;1.50;;;;;;;16.11;69.99;97902.08;225422;1282;22564;-73
2023/05/15 16:51:44;;;;;;;2.30;1.70;;;;;;;15.99;69.83;97907.29;225503;1282;22568;-74
2023/05/15 16:56:58;;;;;;;1.80;1.40;;;;;;;15.86;69.99;97911.19;225556;1278;24282;-73
2023/05/15 17:02:11;;;;;;;1.60;1.00;;;;;;;15.66;70.06;97915.52;225605;1282;22541;-73
2023/05/15 17:07:45;;;;;;;2.60;1.30;;;;;;;15.44;70.33;97927.55;225516;1281;25236;-73
2023/05/15 17:13:03;;;;;;;1.70;1.10;;;;;;;15.23;70.66;97933.25;225537;1278;25434;-73
2023/05/15 17:18:08;;;;;;;1.20;1.10;;;;;;;15.06;71.17;97936.45;225530;1282;22550;-73
2023/05/15 17:23:13;;;;;;;1.40;1.20;;;;;;;14.93;71.56;97945.30;225564;1282;22642;-73
2023/05/15 17:28:29;;;;;;;1.10;1.00;;;;;;;14.84;71.68;97965.77;225471;1282;22528;-74
2023/05/15 17:33:31;;;;;;;1.00;1.00;;;;;;;14.74;71.71;97977.25;225547;1281;22530;-75
2023/05/15 17:38:35;;;;;;;0.90;0.80;;;;;;;14.58;71.70;97982.54;225566;1281;22663;-73
2023/05/15 17:43:41;;;;;;;0.90;0.90;;;;;;;14.41;71.78;97988.69;225542;1282;24222;-73
2023/05/15 17:48:55;;;;;;;1.20;1.10;;;;;;;14.28;71.98;97994.43;225492;1282;22543;-73
2023/05/15 17:54:01;;;;;;;2.70;1.40;;;;;;;14.19;72.28;98000.30;225603;1259;25377;-73
2023/05/15 17:59:06;;;;;;;2.50;1.40;;;;;;;14.12;72.50;98008.58;225525;1281;22547;-73
2023/05/15 18:04:16;;;;;;;;;;;;;;;14.07;72.99;98011.38;225558;1279;22634;-73
2023/05/15 18:09:21;;;;;;;2.50;1.50;;;;;;;13.98;73.18;98015.56;225510;1282;24209;-73
2023/05/15 18:14:25;;;;;;;2.50;2.30;;;;;;;13.85;73.41;98025.92;225526;1279;24256;-73
2023/05/15 18:19:38;;;;;;;2.50;2.00;;;;;;;13.80;73.76;98030.78;225561;1278;24567;-74
2023/05/15 18:24:50;;;;;;;3.80;2.70;;;;;;;13.75;73.90;98037.30;225588;1282;23025;-73
2023/05/15 18:30:03;;;;;;;2.90;1.90;;;;;;;13.71;73.91;98034.38;225581;1276;26052;-73
2023/05/15 18:35:06;;;;;;;1.70;1.60;;;;;;;13.68;74.15;98042.68;225615;1282;22551;-73
2023/05/15 18:40:12;;;;;;;2.20;2.00;;;;;;;13.60;74.04;98056.55;225634;1282;24502;-74
2023/05/15 18:45:15;;;;;;;1.60;1.50;;;;;;;13.52;74.16;98059.83;225459;1282;22540;-73
2023/05/15 18:50:23;;;;;;;2.20;1.90;;;;;;;13.47;74.43;98064.54;225400;1282;22539;-73
2023/05/15 18:55:28;;;;;;;2.20;2.00;;;;;;;13.39;74.65;98075.77;225591;1282;25275;-72
2023/05/15 19:00:45;;;;;;;4.00;2.50;;;;;;;13.27;74.83;98082.80;225638;1282;23014;-72
2023/05/15 19:05:50;;;;;;;3.20;2.40;;;;;;;13.13;75.20;98087.85;225659;1278;25276;-73
2023/05/15 19:10:58;;;;;;;3.30;2.30;;;;;;;12.98;75.33;98100.27;225589;1282;22547;-73
2023/05/15 19:16:06;;;;;;;3.60;2.80;;;;;;;12.84;75.86;98115.92;225582;1282;22555;-72
2023/05/15 19:21:19;;;;;;;3.10;2.80;;;;;;;12.70;76.14;98113.60;225515;1282;22562;-73
2023/05/15 19:26:22;;;;;;;3.80;3.10;;;;;;;12.59;76.61;98120.60;225605;1275;22564;-72
2023/05/15 19:31:24;;;;;;;5.10;3.80;;;;;;;12.52;76.94;98119.70;225561;1277;22538;-73
2023/05/15 19:36:34;;;;;;;6.20;4.40;;;;;;;12.51;77.29;98121.02;225595;1279;21813;-73
2023/05/15 19:41:42;;;;;;;6.50;4.40;;;;;;;12.53;77.79;98119.30;225561;1280;25287;-73
2023/05/15 19:46:47;;;;;;;5.40;4.10;;;;;;;12.53;78.03;98112.00;225525;1282;22565;-73
2023/05/15 19:51:52;;;;;;;5.30;3.60;;;;;;;12.49;78.18;98112.77;225646;1277;22565;-74
2023/05/15 19:57:01;;;;;;;3.10;2.80;;;;;;;12.42;78.30;98115.60;225652;1277;22609;-74
2023/05/15 20:02:13;;;;;;;4.70;3.40;;;;;;;12.31;78.42;98117.39;225616;1282;22602;-72
2023/05/15 20:07:26;;;;;;;4.70;3.60;;;;;;;12.19;78.59;98112.10;225588;1282;22546;-73
2023/05/15 20:12:38;;;;;;;4.30;3.30;;;;;;;12.08;79.19;98114.16;225542;1280;22530;-73
2023/05/15 20:17:52;;;;;;;6.50;4.30;;;;;;;12.00;79.48;98113.16;225525;1277;23094;-73
2023/05/15 20:22:57;;;;;;;5.90;4.60;;;;;;;11.95;79.86;98128.55;225587;1282;22545;-73
2023/05/15 20:28:04;;;;;;;6.70;5.20;;;;;;;11.92;80.11;98132.99;225630;1282;22565;-73
2023/05/15 20:33:17;;;;;;;5.60;4.80;;;;;;;11.88;80.50;98125.89;225573;1279;22546;-73
2023/05/15 20:38:30;;;;;;;7.30;5.00;;;;;;;11.83;80.47;98127.92;225663;1276;22559;-74
2023/05/15 20:43:42;;;;;;;5.90;5.30;;;;;;;11.76;80.68;98136.04;225626;1282;23040;-73
2023/05/15 20:48:45;;;;;;;6.80;5.50;;;;;;;11.74;80.97;98135.50;225625;1276;22551;-73
2023/05/15 20:53:48;;;;;;;5.70;4.80;;;;;;;11.73;81.24;98140.35;225594;1278;22637;-72
2023/05/15 20:58:55;;;;;;;7.70;5.40;;;;;;;11.75;81.22;98144.16;225535;1282;22553;-73
2023/05/15 21:04:07;;;;;;;6.50;5.20;;;;;;;11.72;81.08;98136.46;225654;1282;22536;-73
2023/05/15 21:09:15;;;;;;;6.50;5.10;;;;;;;11.65;81.44;98136.28;225653;1282;25401;-73
2023/05/15 21:14:38;;;;;;;7.10;4.70;;;;;;;11.59;81.41;98138.75;225545;1282;22527;-73
2023/05/15 21:20:20;;;;;;;6.00;5.20;;;;;;;11.55;81.58;98148.47;225643;1282;22553;-74
2023/05/15 21:26:10;;;;;;;5.20;4.70;;;;;;;11.55;81.80;98155.50;225511;1277;22530;-73
2023/05/15 21:31:27;;;;;;;4.80;4.30;;;;;;;11.53;81.74;98152.05;225629;1282;22889;-73
2023/05/15 21:36:59;;;;;;;5.80;5.20;;;;;;;11.51;81.78;98145.91;225677;1282;22553;-73
2023/05/15 21:42:51;;;;;;;6.00;4.80;;;;;;;11.46;81.52;98155.02;225633;1270;22534;-73
2023/05/15 21:48:12;;;;;;;5.60;4.90;;;;;;;11.40;81.39;98158.81;225625;1280;22561;-73
2023/05/15 21:53:24;;;;;;;5.50;4.90;;;;;;;11.34;81.59;98158.95;225522;1280;22550;-73
2023/05/15 21:59:14;;;;;;;5.20;4.70;;;;;;;11.29;81.77;98161.84;225582;1282;22583;-73
2023/05/15 22:04:38;;;;;;;6.50;5.70;;;;;;;11.28;81.84;98171.94;225649;1275;22575;-73
2023/05/15 22:10:03;;;;;;;6.30;5.70;;;;;;;11.24;81.90;98177.90;225554;1282;22543;-72
2023/05/15 22:15:34;;;;;;;10.10;6.90;;;;;;;11.19;81.75;98180.66;225678;1278;22549;-73
2023/05/15 22:20:59;;;;;;;7.00;6.10;;;;;;;11.15;81.92;98182.37;225576;1282;22566;-72
2023/05/15 22:26:25;;;;;;;7.70;6.00;;;;;;;11.10;81.93;98180.37;225539;1282;22537;-73
2023/05/15 22:31:52;;;;;;;7.20;6.40;;;;;;;11.05;81.90;98188.13;225588;1282;22556;-73
2023/05/15 22:37:11;;;;;;;10.50;6.70;;;;;;;11.02;81.81;98183.41;225322;1282;420082;-72
2023/05/15 22:42:34;;;;;;;;;;;;;;;11.00;81.97;98187.89;225689;1282;22531;-73
2023/05/15 22:47:48;;;;;;;6.90;5.90;;;;;;;10.96;81.95;98194.24;225492;1282;22549;-72
2023/05/15 22:53:12;;;;;;;6.90;6.20;;;;;;;10.89;82.22;98188.80;225590;1282;22546;-72
2023/05/15 22:58:45;;;;;;;7.20;6.20;;;;;;;10.83;81.96;98185.54;225327;1282;22557;-72
2023/05/15 23:04:14;;;;;;;7.10;6.40;;;;;;;10.77;81.91;98186.89;225236;1265;22547;-72
2023/05/15 23:09:54;;;;;;;8.70;7.20;;;;;;;10.71;81.90;98192.73;225278;1284;22616;-72
2023/05/15 23:15:05;;;;;;;7.30;6.60;;;;;;;10.64;81.89;98197.17;225272;1284;22535;-72
2023/05/15 23:20:38;;;;;;;7.40;6.70;;;;;;;10.60;82.27;98198.02;225171;1283;25981;-73
2023/05/15 23:25:49;;;;;;;9.20;7.20;;;;;;;10.56;82.29;98201.27;225303;1281;22596;-73
2023/05/15 23:31:17;;;;;;;9.30;7.30;;;;;;;10.51;82.16;98197.90;225668;1282;23023;-72
2023/05/15 23:36:44;;;;;;;8.90;8.00;;;;;;;10.45;82.35;98195.23;225595;1282;23026;-72
2023/05/15 23:42:08;;;;;;;10.20;9.00;;;;;;;10.37;82.29;98201.58;225650;1282;24288;-72
2023/05/15 23:47:17;;;;;;;11.40;10.20;;;;;;;10.31;82.63;98199.00;225661;1277;25296;-72
2023/05/15 23:52:56;;;;;;;10.20;9.10;;;;;;;10.26;82.90;98202.96;225533;1282;25288;-73
2023/05/15 23:58:33;;;;;;;9.10;8.10;;;;;;;10.23;82.77;98203.51;225609;1282;22709;-72
